createdAt,value
2023-04-30T00:00:14.501Z,100959.24
2023-04-30T00:03:03.726Z,100958.64
2023-04-30T00:05:32.833Z,100959.87
2023-04-30T00:08:01.927Z,100959.52
2023-04-30T00:10:31.014Z,100960.06
2023-04-30T00:13:00.123Z,100970.57
2023-04-30T00:15:29.170Z,100972.75
2023-04-30T00:17:58.333Z,100974.91
2023-04-30T00:20:27.363Z,100974.05
2023-04-30T00:22:56.391Z,100974.91
2023-04-30T00:25:25.472Z,100976.56
2023-04-30T00:27:54.520Z,100981.68
2023-04-30T00:30:23.612Z,100982.70
2023-04-30T00:32:52.713Z,100987.83
2023-04-30T00:35:21.812Z,100989.06
2023-04-30T00:37:50.853Z,100989.60
2023-04-30T00:40:20.172Z,100988.20
2023-04-30T00:42:49.252Z,100988.86
2023-04-30T00:45:18.501Z,100989.46
2023-04-30T00:47:47.687Z,100989.37
2023-04-30T00:50:17.003Z,100995.31
2023-04-30T00:52:46.165Z,100996.73
2023-04-30T00:55:22.018Z,100997.93
2023-04-30T00:57:51.354Z,101003.02
2023-04-30T01:00:20.563Z,101005.66
2023-04-30T01:02:49.959Z,101003.55
2023-04-30T01:05:19.296Z,101008.39
2023-04-30T01:07:50.311Z,101010.15
2023-04-30T01:10:19.690Z,101015.30
2023-04-30T01:12:53.155Z,101014.35
2023-04-30T01:15:27.583Z,101017.94
2023-04-30T01:18:05.385Z,101014.48
2023-04-30T01:20:34.867Z,101017.48
2023-04-30T01:23:09.947Z,101019.73
2023-04-30T01:25:57.712Z,101021.23
2023-04-30T01:28:28.079Z,101023.20
2023-04-30T01:30:58.465Z,101025.30
2023-04-30T01:33:27.574Z,101029.08
2023-04-30T01:36:12.933Z,101026.45
2023-04-30T01:38:56.170Z,101029.96
2023-04-30T01:41:29.955Z,101030.27
2023-04-30T01:44:06.293Z,101033.42
2023-04-30T01:46:35.405Z,101035.52
2023-04-30T01:49:08.767Z,101036.98
2023-04-30T01:51:40.190Z,101037.38
2023-04-30T01:54:13.963Z,101039.27
2023-04-30T01:56:45.928Z,101044.18
2023-04-30T01:59:15.665Z,101049.34
2023-04-30T02:01:44.905Z,101049.13
2023-04-30T02:04:14.012Z,101056.64
2023-04-30T02:06:43.103Z,101055.53
2023-04-30T02:09:12.188Z,101059.98
2023-04-30T02:11:41.300Z,101060.27
2023-04-30T02:14:10.380Z,101059.88
2023-04-30T02:16:39.471Z,101062.98
2023-04-30T02:19:08.658Z,101066.59
2023-04-30T02:21:37.704Z,101068.27
2023-04-30T02:24:08.435Z,101069.63
2023-04-30T02:26:37.482Z,101074.36
2023-04-30T02:29:06.460Z,101074.23
2023-04-30T02:31:35.511Z,101080.52
2023-04-30T02:34:04.561Z,101077.88
2023-04-30T02:36:33.623Z,101083.72
2023-04-30T02:39:02.731Z,101086.19
2023-04-30T02:41:31.783Z,101089.36
2023-04-30T02:44:00.837Z,101092.12
2023-04-30T02:46:29.997Z,101090.77
2023-04-30T02:48:59.059Z,101091.77
2023-04-30T02:51:28.119Z,101092.25
2023-04-30T02:53:57.214Z,101092.45
2023-04-30T02:56:26.336Z,101094.31
2023-04-30T02:58:55.347Z,101094.86
2023-04-30T03:01:24.465Z,101098.03
2023-04-30T03:03:53.541Z,101097.95
2023-04-30T03:06:22.764Z,101103.74
2023-04-30T03:08:51.868Z,101104.11
2023-04-30T03:11:20.961Z,101107.39
2023-04-30T03:13:50.024Z,101106.73
2023-04-30T03:16:19.450Z,101106.89
2023-04-30T03:18:48.799Z,101110.82
2023-04-30T03:21:17.783Z,101113.58
2023-04-30T03:23:46.877Z,101116.58
2023-04-30T03:26:15.919Z,101117.30
2023-04-30T03:28:44.962Z,101123.29
2023-04-30T03:31:14.071Z,101124.80
2023-04-30T03:33:43.295Z,101126.84
2023-04-30T03:36:12.434Z,101132.52
2023-04-30T03:38:41.574Z,101136.92
2023-04-30T03:41:10.689Z,101134.83
2023-04-30T03:43:39.770Z,101141.89
2023-04-30T03:46:08.895Z,101139.20
2023-04-30T03:48:38.011Z,101141.14
2023-04-30T03:51:07.216Z,101144.05
2023-04-30T03:53:36.296Z,101142.67
2023-04-30T03:56:06.687Z,101149.41
2023-04-30T03:58:35.766Z,101151.50
2023-04-30T04:01:05.248Z,101154.45
2023-04-30T04:03:35.426Z,101161.14
2023-04-30T04:06:04.764Z,101166.69
2023-04-30T04:08:33.861Z,101169.64
2023-04-30T04:11:02.933Z,101171.44
2023-04-30T04:13:31.932Z,101179.21
2023-04-30T04:16:01.152Z,101183.56
2023-04-30T04:18:30.232Z,101184.24
2023-04-30T04:20:59.295Z,101186.50
2023-04-30T04:23:28.453Z,101189.30
2023-04-30T04:25:57.915Z,101191.80
2023-04-30T04:28:26.965Z,101192.71
2023-04-30T04:30:56.008Z,101200.17
2023-04-30T04:33:25.087Z,101203.33
2023-04-30T04:35:54.242Z,101203.76
2023-04-30T04:38:23.355Z,101212.42
2023-04-30T04:40:52.912Z,101210.89
2023-04-30T04:43:21.986Z,101214.38
2023-04-30T04:45:51.081Z,101218.08
2023-04-30T04:48:20.156Z,101216.41
2023-04-30T04:50:49.244Z,101215.31
2023-04-30T04:53:18.373Z,101221.37
2023-04-30T04:55:47.437Z,101223.49
2023-04-30T04:58:16.468Z,101226.01
2023-04-30T05:00:45.528Z,101228.27
2023-04-30T05:03:14.857Z,101233.04
2023-04-30T05:05:44.408Z,101235.34
2023-04-30T05:08:13.482Z,101231.25
2023-04-30T05:10:43.327Z,101235.81
2023-04-30T05:13:12.451Z,101244.13
2023-04-30T05:15:41.572Z,101248.98
2023-04-30T05:18:10.720Z,101252.31
2023-04-30T05:20:39.816Z,101257.42
2023-04-30T05:23:08.933Z,101266.31
2023-04-30T05:25:37.975Z,101268.54
2023-04-30T05:28:06.984Z,101267.25
2023-04-30T05:30:36.081Z,101266.60
2023-04-30T05:33:05.251Z,101272.06
2023-04-30T05:35:34.384Z,101275.73
2023-04-30T05:38:03.608Z,101279.99
2023-04-30T05:40:32.650Z,101280.62
2023-04-30T05:43:02.055Z,101284.98
2023-04-30T05:45:31.063Z,101291.45
2023-04-30T05:48:02.763Z,101295.07
2023-04-30T05:50:32.211Z,101297.65
2023-04-30T05:53:01.365Z,101300.75
2023-04-30T05:55:31.106Z,101304.05
2023-04-30T05:58:00.182Z,101301.73
2023-04-30T06:00:29.348Z,101305.86
2023-04-30T06:02:58.573Z,101306.84
2023-04-30T06:05:27.852Z,101308.94
2023-04-30T06:07:56.895Z,101311.36
2023-04-30T06:10:26.089Z,101309.56
2023-04-30T06:12:55.206Z,101312.14
2023-04-30T06:15:24.232Z,101314.64
2023-04-30T06:17:55.532Z,101314.82
2023-04-30T06:20:24.563Z,101317.81
2023-04-30T06:22:56.646Z,101322.09
2023-04-30T06:25:25.749Z,101326.71
2023-04-30T06:27:54.843Z,101326.61
2023-04-30T06:30:23.940Z,101332.95
2023-04-30T06:32:53.063Z,101337.80
2023-04-30T06:35:22.280Z,101338.05
2023-04-30T06:37:51.420Z,101341.17
2023-04-30T06:40:21.931Z,101338.98
2023-04-30T06:42:50.992Z,101335.46
2023-04-30T06:45:20.102Z,101334.13
2023-04-30T06:47:49.263Z,101340.27
2023-04-30T06:50:18.873Z,101340.19
2023-04-30T06:52:47.934Z,101340.36
2023-04-30T06:55:22.776Z,101337.82
2023-04-30T06:57:51.787Z,101338.89
2023-04-30T07:00:28.247Z,101338.38
2023-04-30T07:02:57.427Z,101335.02
2023-04-30T07:05:27.175Z,101336.30
2023-04-30T07:07:56.447Z,101337.00
2023-04-30T07:10:25.932Z,101337.19
2023-04-30T07:12:55.177Z,101336.48
2023-04-30T07:15:24.212Z,101342.81
2023-04-30T07:17:53.295Z,101342.52
2023-04-30T07:20:22.381Z,101343.04
2023-04-30T07:22:51.415Z,101343.01
2023-04-30T07:25:20.565Z,101344.91
2023-04-30T07:27:51.251Z,101343.96
2023-04-30T07:30:47.502Z,101344.80
2023-04-30T07:33:13.958Z,101346.94
2023-04-30T07:35:51.855Z,101345.13
2023-04-30T07:38:31.329Z,101342.20
2023-04-30T07:41:00.562Z,101342.16
2023-04-30T07:43:32.450Z,101338.52
2023-04-30T07:46:01.561Z,101338.80
2023-04-30T07:48:30.680Z,101344.92
2023-04-30T07:50:59.762Z,101347.15
2023-04-30T07:53:28.806Z,101347.84
2023-04-30T07:55:57.858Z,101350.43
2023-04-30T07:58:27.011Z,101352.52
2023-04-30T08:00:56.111Z,101347.55
2023-04-30T08:03:25.268Z,101347.02
2023-04-30T08:05:54.582Z,101353.79
2023-04-30T08:08:23.671Z,101351.86
2023-04-30T08:10:52.712Z,101347.63
2023-04-30T08:13:21.852Z,101353.64
2023-04-30T08:15:50.927Z,101357.88
2023-04-30T08:18:19.943Z,101359.48
2023-04-30T08:20:49.078Z,101362.14
2023-04-30T08:23:18.113Z,101365.02
2023-04-30T08:25:47.099Z,101362.44
2023-04-30T08:28:39.020Z,101359.75
2023-04-30T08:31:08.131Z,101364.25
2023-04-30T08:33:38.314Z,101368.21
2023-04-30T08:36:07.753Z,101365.48
2023-04-30T08:38:36.817Z,101368.66
2023-04-30T08:41:09.595Z,101369.60
2023-04-30T08:43:39.031Z,101375.06
2023-04-30T08:46:08.256Z,101368.55
2023-04-30T08:48:37.593Z,101370.54
2023-04-30T08:51:06.768Z,101366.85
2023-04-30T08:53:36.822Z,101373.00
2023-04-30T08:56:09.808Z,101371.35
2023-04-30T08:58:39.300Z,101367.02
2023-04-30T09:01:10.227Z,101366.11
2023-04-30T09:03:39.532Z,101367.27
2023-04-30T09:06:08.687Z,101369.03
2023-04-30T09:08:44.395Z,101368.90
2023-04-30T09:11:23.580Z,101371.07
2023-04-30T09:13:53.432Z,101371.82
2023-04-30T09:16:23.207Z,101371.32
2023-04-30T09:18:52.804Z,101377.30
2023-04-30T09:21:38.036Z,101378.81
2023-04-30T09:24:07.217Z,101380.77
2023-04-30T09:26:37.245Z,101378.60
2023-04-30T09:29:06.469Z,101382.21
2023-04-30T09:31:36.164Z,101379.11
2023-04-30T09:34:05.261Z,101380.89
2023-04-30T09:36:34.510Z,101386.52
2023-04-30T09:39:11.531Z,101389.36
2023-04-30T09:41:42.644Z,101386.05
2023-04-30T09:44:25.233Z,101381.57
2023-04-30T09:46:55.671Z,101379.63
2023-04-30T09:49:24.964Z,101375.74
2023-04-30T09:51:58.470Z,101375.58
2023-04-30T09:54:29.008Z,101374.05
2023-04-30T09:56:58.689Z,101374.40
2023-04-30T09:59:29.293Z,101372.92
2023-04-30T10:01:59.040Z,101370.48
2023-04-30T10:04:29.019Z,101375.05
2023-04-30T10:06:58.713Z,101375.08
2023-04-30T10:09:29.913Z,101376.80
2023-04-30T10:11:59.088Z,101370.77
2023-04-30T10:14:30.871Z,101365.42
2023-04-30T10:17:03.602Z,101367.77
2023-04-30T10:19:34.045Z,101368.88
2023-04-30T10:22:03.538Z,101367.55
2023-04-30T10:24:32.826Z,101365.77
2023-04-30T10:27:01.907Z,101367.59
2023-04-30T10:29:30.925Z,101364.64
2023-04-30T10:32:00.413Z,101367.67
2023-04-30T10:34:35.895Z,101362.41
2023-04-30T10:37:07.564Z,101366.37
2023-04-30T10:39:37.426Z,101363.77
2023-04-30T10:42:07.202Z,101359.67
2023-04-30T10:44:36.986Z,101353.20
2023-04-30T10:47:07.042Z,101348.84
2023-04-30T10:49:36.192Z,101350.31
2023-04-30T10:52:05.462Z,101353.04
2023-04-30T10:54:35.223Z,101350.00
2023-04-30T10:57:10.895Z,101355.09
2023-04-30T10:59:41.766Z,101350.11
2023-04-30T11:02:10.997Z,101347.34
2023-04-30T11:04:53.565Z,101348.38
2023-04-30T11:07:31.291Z,101350.36
2023-04-30T11:10:01.034Z,101352.45
2023-04-30T11:12:30.167Z,101353.27
2023-04-30T11:15:00.596Z,101354.34
2023-04-30T11:17:30.007Z,101354.89
2023-04-30T11:19:59.966Z,101352.71
2023-04-30T11:22:29.397Z,101346.25
2023-04-30T11:25:05.983Z,101348.47
2023-04-30T11:27:35.502Z,101348.54
2023-04-30T11:30:10.339Z,101350.14
2023-04-30T11:32:39.723Z,101347.27
2023-04-30T11:35:09.382Z,101349.98
2023-04-30T11:37:39.470Z,101346.16
2023-04-30T11:40:09.786Z,101349.56
2023-04-30T11:42:39.056Z,101350.98
2023-04-30T11:45:14.316Z,101347.23
2023-04-30T11:47:47.422Z,101345.90
2023-04-30T11:50:16.924Z,101347.06
2023-04-30T11:52:50.971Z,101347.14
2023-04-30T11:55:24.600Z,101343.69
2023-04-30T11:57:54.150Z,101344.92
2023-04-30T12:00:27.147Z,101343.83
2023-04-30T12:02:56.922Z,101343.84
2023-04-30T12:05:26.924Z,101338.40
2023-04-30T12:08:02.274Z,101338.69
2023-04-30T12:10:31.796Z,101343.58
2023-04-30T12:13:01.152Z,101343.74
2023-04-30T12:15:30.282Z,101341.73
2023-04-30T12:17:59.952Z,101338.40
2023-04-30T12:20:31.026Z,101337.52
2023-04-30T12:23:00.945Z,101339.41
2023-04-30T12:25:30.141Z,101342.80
2023-04-30T12:28:00.318Z,101341.55
2023-04-30T12:30:29.420Z,101335.73
2023-04-30T12:32:59.599Z,101337.29
2023-04-30T12:35:29.402Z,101335.48
2023-04-30T12:38:03.469Z,101331.56
2023-04-30T12:40:32.889Z,101332.20
2023-04-30T12:43:03.080Z,101331.05
2023-04-30T12:45:43.889Z,101328.79
2023-04-30T12:48:13.992Z,101328.08
2023-04-30T12:50:47.316Z,101324.70
2023-04-30T12:53:16.551Z,101325.02
2023-04-30T12:56:05.672Z,101322.08
2023-04-30T12:58:35.729Z,101320.94
2023-04-30T13:01:06.195Z,101323.70
2023-04-30T13:03:37.572Z,101316.66
2023-04-30T13:06:06.872Z,101314.94
2023-04-30T13:08:45.599Z,101316.83
2023-04-30T13:11:20.308Z,101313.94
2023-04-30T13:13:52.386Z,101312.49
2023-04-30T13:16:21.566Z,101309.54
2023-04-30T13:18:50.678Z,101308.05
2023-04-30T13:21:19.862Z,101313.11
2023-04-30T13:23:53.525Z,101314.94
2023-04-30T13:26:23.817Z,101316.88
2023-04-30T13:28:58.515Z,101320.06
2023-04-30T13:31:27.652Z,101315.84
2023-04-30T13:33:56.792Z,101311.89
2023-04-30T13:36:25.836Z,101310.27
2023-04-30T13:39:20.530Z,101305.15
2023-04-30T13:41:49.752Z,101300.09
2023-04-30T13:44:18.928Z,101301.30
2023-04-30T13:46:48.050Z,101303.67
2023-04-30T13:49:17.205Z,101300.35
2023-04-30T13:51:52.399Z,101302.96
2023-04-30T13:54:23.646Z,101306.38
2023-04-30T13:56:52.851Z,101301.02
2023-04-30T13:59:21.937Z,101300.27
2023-04-30T14:01:51.095Z,101296.77
2023-04-30T14:04:20.194Z,101295.31
2023-04-30T14:06:49.626Z,101298.77
2023-04-30T14:09:18.696Z,101293.02
2023-04-30T14:11:47.795Z,101285.78
2023-04-30T14:14:16.781Z,101279.41
2023-04-30T14:16:45.912Z,101278.49
2023-04-30T14:19:15.105Z,101281.45
2023-04-30T14:21:44.186Z,101280.13
2023-04-30T14:24:13.236Z,101285.19
2023-04-30T14:26:42.647Z,101283.39
2023-04-30T14:29:11.895Z,101286.94
2023-04-30T14:31:40.915Z,101281.45
2023-04-30T14:34:10.011Z,101277.33
2023-04-30T14:36:39.072Z,101279.15
2023-04-30T14:39:08.202Z,101281.27
2023-04-30T14:41:37.385Z,101282.91
2023-04-30T14:44:06.436Z,101285.00
2023-04-30T14:46:35.960Z,101280.32
2023-04-30T14:49:05.070Z,101283.39
2023-04-30T14:51:34.137Z,101275.25
2023-04-30T14:54:03.344Z,101277.90
2023-04-30T14:56:32.460Z,101278.58
2023-04-30T14:59:01.524Z,101276.00
2023-04-30T15:01:30.702Z,101270.08
2023-04-30T15:03:59.908Z,101269.00
2023-04-30T15:06:29.059Z,101267.61
2023-04-30T15:08:58.171Z,101269.89
2023-04-30T15:11:27.216Z,101264.54
2023-04-30T15:13:56.355Z,101258.38
2023-04-30T15:16:25.569Z,101258.34
2023-04-30T15:18:54.760Z,101262.73
2023-04-30T15:21:23.812Z,101264.38
2023-04-30T15:23:52.977Z,101268.13
2023-04-30T15:26:22.190Z,101266.12
2023-04-30T15:28:51.347Z,101263.86
2023-04-30T15:31:20.432Z,101268.73
2023-04-30T15:33:49.922Z,101265.83
2023-04-30T15:36:18.984Z,101266.02
2023-04-30T15:38:48.084Z,101260.02
2023-04-30T15:41:19.166Z,101265.52
2023-04-30T15:43:48.259Z,101267.16
2023-04-30T15:46:19.652Z,101274.81
2023-04-30T15:48:48.802Z,101273.15
2023-04-30T15:51:20.588Z,101271.94
2023-04-30T15:53:49.673Z,101270.83
2023-04-30T15:56:18.707Z,101268.38
2023-04-30T15:58:47.766Z,101267.58
2023-04-30T16:01:16.881Z,101267.24
2023-04-30T16:03:46.099Z,101267.77
2023-04-30T16:06:15.644Z,101272.38
2023-04-30T16:08:45.554Z,101268.36
2023-04-30T16:11:14.696Z,101264.98
2023-04-30T16:13:43.780Z,101262.91
2023-04-30T16:16:13.031Z,101263.84
2023-04-30T16:18:42.097Z,101268.08
2023-04-30T16:21:11.371Z,101265.94
2023-04-30T16:23:40.402Z,101264.63
2023-04-30T16:26:09.503Z,101266.36
2023-04-30T16:28:38.863Z,101269.52
2023-04-30T16:31:08.027Z,101266.67
2023-04-30T16:33:37.101Z,101265.10
2023-04-30T16:36:06.289Z,101266.47
2023-04-30T16:38:37.936Z,101267.09
2023-04-30T16:41:11.394Z,101262.27
2023-04-30T16:43:40.503Z,101263.94
2023-04-30T16:46:09.605Z,101261.23
2023-04-30T16:48:38.694Z,101258.55
2023-04-30T16:51:07.920Z,101262.55
2023-04-30T16:53:37.001Z,101257.40
2023-04-30T16:56:08.762Z,101254.95
2023-04-30T16:58:37.815Z,101259.81
2023-04-30T17:01:06.984Z,101259.25
2023-04-30T17:03:36.372Z,101258.98
2023-04-30T17:06:05.901Z,101258.17
2023-04-30T17:08:35.038Z,101259.69
2023-04-30T17:11:04.382Z,101263.09
2023-04-30T17:13:59.376Z,101266.58
2023-04-30T17:16:28.509Z,101267.08
2023-04-30T17:18:57.605Z,101268.08
2023-04-30T17:21:26.631Z,101274.27
2023-04-30T17:23:55.875Z,101271.98
2023-04-30T17:26:24.901Z,101266.70
2023-04-30T17:28:53.993Z,101269.52
2023-04-30T17:31:26.484Z,101271.20
2023-04-30T17:34:43.219Z,101270.57
2023-04-30T17:37:13.494Z,101278.89
2023-04-30T17:39:59.772Z,101276.25
2023-04-30T17:42:29.040Z,101278.96
2023-04-30T17:44:58.184Z,101280.27
2023-04-30T17:47:27.484Z,101283.27
2023-04-30T17:49:56.940Z,101284.35
2023-04-30T17:52:26.547Z,101283.15
2023-04-30T17:54:58.173Z,101290.86
2023-04-30T17:57:27.248Z,101289.64
2023-04-30T17:59:56.755Z,101292.30
2023-04-30T18:02:49.053Z,101295.39
2023-04-30T18:06:02.052Z,101293.05
2023-04-30T18:08:28.952Z,101297.21
2023-04-30T18:11:18.057Z,101294.30
2023-04-30T18:13:47.130Z,101296.79
2023-04-30T18:16:16.232Z,101303.06
2023-04-30T18:18:45.369Z,101305.34
2023-04-30T18:21:14.503Z,101305.80
2023-04-30T18:23:43.836Z,101301.30
2023-04-30T18:26:12.906Z,101306.88
2023-04-30T18:28:43.211Z,101308.37
2023-04-30T18:31:12.673Z,101310.39
2023-04-30T18:33:42.089Z,101313.78
2023-04-30T18:36:11.223Z,101314.23
2023-04-30T18:38:40.362Z,101317.35
2023-04-30T18:41:09.550Z,101316.45
2023-04-30T18:43:38.796Z,101319.47
2023-04-30T18:46:10.719Z,101320.27
2023-04-30T18:48:39.889Z,101321.27
2023-04-30T18:51:08.944Z,101324.14
2023-04-30T18:53:37.979Z,101327.34
2023-04-30T18:56:08.977Z,101330.24
2023-04-30T18:58:38.109Z,101330.39
2023-04-30T19:01:08.892Z,101332.77
2023-04-30T19:03:38.098Z,101337.16
2023-04-30T19:06:07.276Z,101336.95
2023-04-30T19:08:36.454Z,101339.85
2023-04-30T19:11:05.556Z,101336.88
2023-04-30T19:13:34.620Z,101339.36
2023-04-30T19:16:03.881Z,101337.52
2023-04-30T19:18:37.972Z,101337.09
2023-04-30T19:21:09.301Z,101338.63
2023-04-30T19:23:39.909Z,101339.60
2023-04-30T19:26:08.989Z,101343.45
2023-04-30T19:28:41.195Z,101340.85
2023-04-30T19:31:10.335Z,101345.02
2023-04-30T19:33:39.523Z,101352.55
2023-04-30T19:36:09.049Z,101354.63
2023-04-30T19:38:38.094Z,101352.17
2023-04-30T19:41:07.178Z,101352.86
2023-04-30T19:43:36.265Z,101356.52
2023-04-30T19:46:05.405Z,101352.02
2023-04-30T19:48:34.524Z,101355.53
2023-04-30T19:51:04.370Z,101355.88
2023-04-30T19:53:35.674Z,101354.84
2023-04-30T19:56:04.897Z,101357.70
2023-04-30T19:58:33.963Z,101360.21
2023-04-30T20:01:03.187Z,101360.69
2023-04-30T20:03:54.154Z,101364.91
2023-04-30T20:06:21.891Z,101366.19
2023-04-30T20:08:51.109Z,101368.24
2023-04-30T20:11:20.224Z,101368.11
2023-04-30T20:14:09.236Z,101370.30
2023-04-30T20:16:38.519Z,101367.42
2023-04-30T20:19:30.800Z,101369.98
2023-04-30T20:21:57.635Z,101370.04
2023-04-30T20:24:26.685Z,101365.63
2023-04-30T20:26:55.728Z,101364.59
2023-04-30T20:29:27.110Z,101362.27
2023-04-30T20:32:19.052Z,101364.13
2023-04-30T20:34:48.383Z,101366.11
2023-04-30T20:37:17.475Z,101364.19
2023-04-30T20:39:46.883Z,101362.77
2023-04-30T20:42:38.900Z,101359.41
2023-04-30T20:45:06.461Z,101361.19
2023-04-30T20:47:35.552Z,101360.73
2023-04-30T20:50:05.455Z,101359.36
2023-04-30T20:52:34.569Z,101357.58
2023-04-30T20:55:11.124Z,101363.36
2023-04-30T20:57:40.270Z,101363.91
2023-04-30T21:00:10.343Z,101368.04
2023-04-30T21:02:41.289Z,101368.05
2023-04-30T21:05:13.411Z,101370.41
2023-04-30T21:07:43.950Z,101368.33
2023-04-30T21:10:15.037Z,101366.30
2023-04-30T21:12:48.839Z,101365.69
2023-04-30T21:15:18.071Z,101370.72
2023-04-30T21:17:47.194Z,101372.46
2023-04-30T21:20:19.508Z,101374.75
2023-04-30T21:22:48.991Z,101376.27
2023-04-30T21:25:29.141Z,101378.21
2023-04-30T21:28:48.609Z,101383.02
2023-04-30T21:31:05.682Z,101382.33
2023-04-30T21:33:36.555Z,101381.50
2023-04-30T21:36:07.946Z,101385.30
2023-04-30T21:38:36.978Z,101383.61
2023-04-30T21:41:06.025Z,101383.33
2023-04-30T21:43:35.158Z,101382.22
2023-04-30T21:46:04.214Z,101384.21
2023-04-30T21:48:33.285Z,101392.46
2023-04-30T21:51:25.454Z,101391.60
2023-04-30T21:53:52.258Z,101391.16
2023-04-30T21:56:41.332Z,101396.73
2023-04-30T21:59:10.546Z,101396.17
2023-04-30T22:01:39.652Z,101391.58
2023-04-30T22:04:08.909Z,101394.33
2023-04-30T22:06:38.151Z,101394.65
2023-04-30T22:09:07.296Z,101392.27
2023-04-30T22:11:36.394Z,101394.63
2023-04-30T22:14:05.473Z,101395.71
2023-04-30T22:16:34.601Z,101390.27
2023-04-30T22:19:03.756Z,101387.16
2023-04-30T22:21:32.904Z,101390.44
2023-04-30T22:24:04.191Z,101391.30
2023-04-30T22:26:35.927Z,101389.90
2023-04-30T22:29:05.149Z,101390.02
2023-04-30T22:31:34.209Z,101388.41
2023-04-30T22:34:03.376Z,101389.17
2023-04-30T22:36:32.417Z,101389.88
2023-04-30T22:39:01.471Z,101386.45
2023-04-30T22:41:30.647Z,101383.44
2023-04-30T22:43:59.829Z,101387.04
2023-04-30T22:46:49.844Z,101385.94
2023-04-30T22:49:30.170Z,101389.62
2023-04-30T22:52:00.306Z,101392.08
2023-04-30T22:54:31.845Z,101395.41
2023-04-30T22:57:00.929Z,101394.60
2023-04-30T22:59:37.344Z,101393.88
2023-04-30T23:02:09.435Z,101394.94
2023-04-30T23:04:38.877Z,101393.23
2023-04-30T23:07:08.109Z,101393.39
2023-04-30T23:09:37.286Z,101392.04
2023-04-30T23:12:06.536Z,101391.05
2023-04-30T23:14:35.591Z,101392.73
2023-04-30T23:17:04.726Z,101395.50
2023-04-30T23:19:34.642Z,101395.27
2023-04-30T23:22:03.724Z,101395.23
2023-04-30T23:24:32.991Z,101393.16
2023-04-30T23:27:02.010Z,101391.89
2023-04-30T23:29:31.102Z,101390.80
2023-04-30T23:32:00.270Z,101389.14
2023-04-30T23:34:29.387Z,101386.44
2023-04-30T23:36:58.473Z,101388.23
2023-04-30T23:39:27.535Z,101385.95
2023-04-30T23:41:56.847Z,101383.12
2023-04-30T23:44:26.314Z,101379.00
2023-04-30T23:46:55.407Z,101378.02
2023-04-30T23:49:24.512Z,101373.92
2023-04-30T23:51:55.785Z,101370.96
2023-04-30T23:54:24.968Z,101365.73
2023-04-30T23:56:54.096Z,101366.11
2023-04-30T23:59:24.915Z,101369.95
